sensor_id;sensor_type;location;lat;lon;timestamp;P1;durP1;ratioP1;P2;durP2;ratioP2
15454;SDS011;21057;51.024;7.540;2024-03-23T00:52:24;30.40;;;28.33;;
15454;SDS011;21057;51.024;7.540;2024-03-23T00:54:51;31.03;;;28.93;;
15454;SDS011;21057;51.024;7.540;2024-03-23T00:57:17;30.97;;;28.97;;
15454;SDS011;21057;51.024;7.540;2024-03-23T00:59:44;31.03;;;29.03;;
15454;SDS011;21057;51.024;7.540;2024-03-23T01:02:10;31.43;;;29.53;;
15454;SDS011;21057;51.024;7.540;2024-03-23T01:04:37;32.33;;;29.90;;
15454;SDS011;21057;51.024;7.540;2024-03-23T01:07:03;32.70;;;30.50;;
15454;SDS011;21057;51.024;7.540;2024-03-23T01:09:31;32.23;;;29.97;;
15454;SDS011;21057;51.024;7.540;2024-03-23T01:11:57;32.57;;;30.10;;
15454;SDS011;21057;51.024;7.540;2024-03-23T01:14:24;32.23;;;30.23;;
15454;SDS011;21057;51.024;7.540;2024-03-23T01:16:50;31.30;;;29.23;;
15454;SDS011;21057;51.024;7.540;2024-03-23T01:19:17;31.27;;;29.17;;
15454;SDS011;21057;51.024;7.540;2024-03-23T01:21:42;33.10;;;30.73;;
15454;SDS011;21057;51.024;7.540;2024-03-23T01:24:09;31.23;;;29.23;;
15454;SDS011;21057;51.024;7.540;2024-03-23T01:26:37;31.33;;;29.23;;
15454;SDS011;21057;51.024;7.540;2024-03-23T01:29:04;31.27;;;29.37;;
15454;SDS011;21057;51.024;7.540;2024-03-23T01:31:30;31.07;;;28.93;;
15454;SDS011;21057;51.024;7.540;2024-03-23T01:33:57;30.80;;;28.80;;
15454;SDS011;21057;51.024;7.540;2024-03-23T01:36:23;31.33;;;28.93;;
15454;SDS011;21057;51.024;7.540;2024-03-23T01:38:50;31.57;;;29.57;;
15454;SDS011;21057;51.024;7.540;2024-03-23T01:41:17;30.70;;;28.70;;
15454;SDS011;21057;51.024;7.540;2024-03-23T01:43:45;31.30;;;29.20;;
15454;SDS011;21057;51.024;7.540;2024-03-23T01:46:11;31.63;;;29.67;;
15454;SDS011;21057;51.024;7.540;2024-03-23T01:48:38;31.83;;;29.83;;
15454;SDS011;21057;51.024;7.540;2024-03-23T01:51:04;32.20;;;30.10;;
15454;SDS011;21057;51.024;7.540;2024-03-23T01:53:31;31.10;;;29.10;;
15454;SDS011;21057;51.024;7.540;2024-03-23T01:55:57;32.07;;;30.07;;
15454;SDS011;21057;51.024;7.540;2024-03-23T01:58:23;31.80;;;29.60;;
15454;SDS011;21057;51.024;7.540;2024-03-23T02:00:51;30.73;;;28.83;;
15454;SDS011;21057;51.024;7.540;2024-03-23T02:03:24;31.90;;;29.90;;
15454;SDS011;21057;51.024;7.540;2024-03-23T02:05:50;32.70;;;30.60;;
15454;SDS011;21057;51.024;7.540;2024-03-23T02:08:18;32.50;;;30.43;;
15454;SDS011;21057;51.024;7.540;2024-03-23T02:10:46;31.50;;;29.60;;
15454;SDS011;21057;51.024;7.540;2024-03-23T02:13:14;31.70;;;29.60;;
15454;SDS011;21057;51.024;7.540;2024-03-23T02:15:40;31.47;;;29.47;;
15454;SDS011;21057;51.024;7.540;2024-03-23T02:18:09;30.97;;;29.00;;
15454;SDS011;21057;51.024;7.540;2024-03-23T02:20:35;32.67;;;30.67;;
15454;SDS011;21057;51.024;7.540;2024-03-23T02:23:03;33.20;;;31.10;;
15454;SDS011;21057;51.024;7.540;2024-03-23T02:25:31;33.37;;;31.07;;
15454;SDS011;21057;51.024;7.540;2024-03-23T02:27:58;33.77;;;31.50;;
15454;SDS011;21057;51.024;7.540;2024-03-23T02:30:24;33.70;;;31.63;;
15454;SDS011;21057;51.024;7.540;2024-03-23T02:32:51;33.70;;;31.30;;
15454;SDS011;21057;51.024;7.540;2024-03-23T02:35:17;33.23;;;31.23;;
15454;SDS011;21057;51.024;7.540;2024-03-23T02:37:46;32.37;;;30.37;;
15454;SDS011;21057;51.024;7.540;2024-03-23T02:40:13;33.33;;;31.13;;
15454;SDS011;21057;51.024;7.540;2024-03-23T02:42:40;32.77;;;30.73;;
15454;SDS011;21057;51.024;7.540;2024-03-23T02:45:06;33.00;;;30.87;;
15454;SDS011;21057;51.024;7.540;2024-03-23T02:47:33;34.10;;;31.90;;
15454;SDS011;21057;51.024;7.540;2024-03-23T02:49:59;32.27;;;30.27;;
15454;SDS011;21057;51.024;7.540;2024-03-23T02:52:26;33.67;;;31.07;;
15454;SDS011;21057;51.024;7.540;2024-03-23T02:54:52;29.20;;;27.50;;
15454;SDS011;21057;51.024;7.540;2024-03-23T02:57:20;32.60;;;30.60;;
15454;SDS011;21057;51.024;7.540;2024-03-23T02:59:46;31.73;;;29.83;;
15454;SDS011;21057;51.024;7.540;2024-03-23T03:02:13;30.87;;;28.90;;
15454;SDS011;21057;51.024;7.540;2024-03-23T03:04:41;28.70;;;26.97;;
15454;SDS011;21057;51.024;7.540;2024-03-23T03:07:06;28.47;;;26.67;;
15454;SDS011;21057;51.024;7.540;2024-03-23T03:09:33;28.97;;;27.27;;
15454;SDS011;21057;51.024;7.540;2024-03-23T03:12:00;31.33;;;28.97;;
15454;SDS011;21057;51.024;7.540;2024-03-23T03:14:29;30.17;;;28.37;;
15454;SDS011;21057;51.024;7.540;2024-03-23T03:16:55;29.90;;;28.10;;
15454;SDS011;21057;51.024;7.540;2024-03-23T03:19:22;31.73;;;29.83;;
15454;SDS011;21057;51.024;7.540;2024-03-23T03:21:48;30.17;;;28.27;;
15454;SDS011;21057;51.024;7.540;2024-03-23T03:24:15;31.13;;;29.13;;
15454;SDS011;21057;51.024;7.540;2024-03-23T03:26:41;32.50;;;30.10;;
15454;SDS011;21057;51.024;7.540;2024-03-23T03:29:07;29.10;;;27.40;;
15454;SDS011;21057;51.024;7.540;2024-03-23T03:31:35;29.63;;;27.53;;
15454;SDS011;21057;51.024;7.540;2024-03-23T03:34:01;30.10;;;28.20;;
15454;SDS011;21057;51.024;7.540;2024-03-23T03:36:27;28.50;;;26.80;;
15454;SDS011;21057;51.024;7.540;2024-03-23T03:38:54;28.40;;;26.60;;
15454;SDS011;21057;51.024;7.540;2024-03-23T03:41:20;28.20;;;26.20;;
15454;SDS011;21057;51.024;7.540;2024-03-23T03:43:47;30.83;;;29.13;;
15454;SDS011;21057;51.024;7.540;2024-03-23T03:46:13;29.70;;;28.10;;
15454;SDS011;21057;51.024;7.540;2024-03-23T03:48:41;29.50;;;27.70;;
15454;SDS011;21057;51.024;7.540;2024-03-23T03:51:07;29.40;;;27.70;;
15454;SDS011;21057;51.024;7.540;2024-03-23T03:53:33;26.70;;;25.20;;
15454;SDS011;21057;51.024;7.540;2024-03-23T03:56:00;28.63;;;26.40;;
15454;SDS011;21057;51.024;7.540;2024-03-23T03:58:27;27.50;;;25.90;;
15454;SDS011;21057;51.024;7.540;2024-03-23T04:00:53;29.90;;;27.07;;
15454;SDS011;21057;51.024;7.540;2024-03-23T04:03:20;28.73;;;26.83;;
15454;SDS011;21057;51.024;7.540;2024-03-23T04:05:50;28.70;;;27.00;;
15454;SDS011;21057;51.024;7.540;2024-03-23T04:08:18;28.10;;;26.40;;
15454;SDS011;21057;51.024;7.540;2024-03-23T04:10:44;29.67;;;26.60;;
15454;SDS011;21057;51.024;7.540;2024-03-23T04:13:11;29.23;;;27.40;;
15454;SDS011;21057;51.024;7.540;2024-03-23T04:15:37;29.80;;;27.77;;
15454;SDS011;21057;51.024;7.540;2024-03-23T04:18:04;28.90;;;27.10;;
15454;SDS011;21057;51.024;7.540;2024-03-23T04:20:30;29.40;;;27.70;;
15454;SDS011;21057;51.024;7.540;2024-03-23T04:22:58;30.57;;;28.47;;
15454;SDS011;21057;51.024;7.540;2024-03-23T04:25:24;30.20;;;28.40;;
15454;SDS011;21057;51.024;7.540;2024-03-23T04:27:51;31.07;;;29.17;;
15454;SDS011;21057;51.024;7.540;2024-03-23T04:30:17;30.80;;;28.83;;
15454;SDS011;21057;51.024;7.540;2024-03-23T04:32:44;31.23;;;28.80;;
15454;SDS011;21057;51.024;7.540;2024-03-23T04:35:10;30.33;;;28.10;;
15454;SDS011;21057;51.024;7.540;2024-03-23T04:37:38;30.03;;;28.23;;
15454;SDS011;21057;51.024;7.540;2024-03-23T04:40:07;31.90;;;29.50;;
15454;SDS011;21057;51.024;7.540;2024-03-23T04:42:36;31.43;;;28.90;;
15454;SDS011;21057;51.024;7.540;2024-03-23T04:45:03;31.77;;;29.27;;
15454;SDS011;21057;51.024;7.540;2024-03-23T04:47:31;32.23;;;29.90;;
15454;SDS011;21057;51.024;7.540;2024-03-23T04:50:00;30.53;;;28.63;;
15454;SDS011;21057;51.024;7.540;2024-03-23T04:52:28;30.03;;;28.13;;
15454;SDS011;21057;51.024;7.540;2024-03-23T04:54:54;30.00;;;28.20;;
15454;SDS011;21057;51.024;7.540;2024-03-23T04:57:23;29.97;;;28.07;;
15454;SDS011;21057;51.024;7.540;2024-03-23T04:59:48;30.20;;;28.40;;
15454;SDS011;21057;51.024;7.540;2024-03-23T05:02:15;31.73;;;29.63;;
15454;SDS011;21057;51.024;7.540;2024-03-23T05:04:41;31.17;;;29.27;;
15454;SDS011;21057;51.024;7.540;2024-03-23T05:07:08;31.03;;;29.03;;
15454;SDS011;21057;51.024;7.540;2024-03-23T05:09:34;31.20;;;29.30;;
15454;SDS011;21057;51.024;7.540;2024-03-23T05:12:01;32.13;;;29.97;;
15454;SDS011;21057;51.024;7.540;2024-03-23T05:14:28;32.47;;;30.43;;
15454;SDS011;21057;51.024;7.540;2024-03-23T05:16:55;32.67;;;30.57;;
15454;SDS011;21057;51.024;7.540;2024-03-23T05:19:21;34.47;;;32.30;;
15454;SDS011;21057;51.024;7.540;2024-03-23T05:21:48;33.43;;;31.33;;
15454;SDS011;21057;51.024;7.540;2024-03-23T05:24:14;33.70;;;31.70;;
15454;SDS011;21057;51.024;7.540;2024-03-23T05:26:41;33.53;;;31.50;;
15454;SDS011;21057;51.024;7.540;2024-03-23T05:29:07;34.00;;;31.67;;
15454;SDS011;21057;51.024;7.540;2024-03-23T05:31:37;33.67;;;31.33;;
15454;SDS011;21057;51.024;7.540;2024-03-23T05:34:03;34.73;;;32.43;;
15454;SDS011;21057;51.024;7.540;2024-03-23T05:36:30;34.73;;;32.60;;
15454;SDS011;21057;51.024;7.540;2024-03-23T05:38:57;36.17;;;33.67;;
15454;SDS011;21057;51.024;7.540;2024-03-23T05:41:24;34.40;;;32.10;;
15454;SDS011;21057;51.024;7.540;2024-03-23T05:43:50;32.83;;;30.83;;
15454;SDS011;21057;51.024;7.540;2024-03-23T05:46:16;33.47;;;31.07;;
15454;SDS011;21057;51.024;7.540;2024-03-23T05:48:44;34.80;;;32.60;;
15454;SDS011;21057;51.024;7.540;2024-03-23T05:51:11;35.97;;;33.13;;
15454;SDS011;21057;51.024;7.540;2024-03-23T05:53:37;35.30;;;32.70;;
15454;SDS011;21057;51.024;7.540;2024-03-23T05:56:04;34.20;;;32.00;;
15454;SDS011;21057;51.024;7.540;2024-03-23T05:58:31;35.23;;;32.37;;
15454;SDS011;21057;51.024;7.540;2024-03-23T06:00:58;35.67;;;33.20;;
15454;SDS011;21057;51.024;7.540;2024-03-23T06:03:25;34.50;;;32.40;;
15454;SDS011;21057;51.024;7.540;2024-03-23T06:05:53;36.30;;;33.80;;
15454;SDS011;21057;51.024;7.540;2024-03-23T06:08:19;35.17;;;32.63;;
15454;SDS011;21057;51.024;7.540;2024-03-23T06:10:46;33.63;;;31.63;;
15454;SDS011;21057;51.024;7.540;2024-03-23T06:13:12;34.43;;;32.43;;
15454;SDS011;21057;51.024;7.540;2024-03-23T06:15:39;35.17;;;32.87;;
15454;SDS011;21057;51.024;7.540;2024-03-23T06:18:05;34.60;;;32.50;;
15454;SDS011;21057;51.024;7.540;2024-03-23T06:20:32;34.93;;;32.27;;
15454;SDS011;21057;51.024;7.540;2024-03-23T06:23:00;35.03;;;32.77;;
15454;SDS011;21057;51.024;7.540;2024-03-23T06:25:28;36.77;;;34.43;;
15454;SDS011;21057;51.024;7.540;2024-03-23T06:27:54;37.40;;;35.30;;
15454;SDS011;21057;51.024;7.540;2024-03-23T06:30:21;38.20;;;35.70;;
15454;SDS011;21057;51.024;7.540;2024-03-23T06:32:47;36.60;;;34.07;;
15454;SDS011;21057;51.024;7.540;2024-03-23T06:35:14;37.37;;;34.63;;
15454;SDS011;21057;51.024;7.540;2024-03-23T06:37:39;37.63;;;34.47;;
15454;SDS011;21057;51.024;7.540;2024-03-23T06:40:08;36.50;;;33.53;;
15454;SDS011;21057;51.024;7.540;2024-03-23T06:42:35;35.30;;;32.87;;
15454;SDS011;21057;51.024;7.540;2024-03-23T06:45:03;35.17;;;32.87;;
15454;SDS011;21057;51.024;7.540;2024-03-23T06:47:29;36.63;;;34.03;;
15454;SDS011;21057;51.024;7.540;2024-03-23T06:49:56;38.40;;;35.50;;
15454;SDS011;21057;51.024;7.540;2024-03-23T06:52:23;37.00;;;34.30;;
15454;SDS011;21057;51.024;7.540;2024-03-23T06:54:49;38.33;;;35.80;;
15454;SDS011;21057;51.024;7.540;2024-03-23T06:57:19;36.77;;;34.27;;
15454;SDS011;21057;51.024;7.540;2024-03-23T06:59:46;36.03;;;33.63;;
15454;SDS011;21057;51.024;7.540;2024-03-23T07:02:12;37.07;;;33.93;;
15454;SDS011;21057;51.024;7.540;2024-03-23T07:04:39;35.83;;;33.37;;
15454;SDS011;21057;51.024;7.540;2024-03-23T07:07:05;34.93;;;32.37;;
15454;SDS011;21057;51.024;7.540;2024-03-23T07:09:32;37.43;;;34.40;;
15454;SDS011;21057;51.024;7.540;2024-03-23T07:11:58;35.90;;;32.73;;
15454;SDS011;21057;51.024;7.540;2024-03-23T07:14:26;36.40;;;33.37;;
15454;SDS011;21057;51.024;7.540;2024-03-23T07:16:52;33.27;;;31.17;;
15454;SDS011;21057;51.024;7.540;2024-03-23T07:19:19;36.40;;;32.93;;
15454;SDS011;21057;51.024;7.540;2024-03-23T07:21:45;33.33;;;30.93;;
15454;SDS011;21057;51.024;7.540;2024-03-23T07:24:13;33.43;;;31.53;;
15454;SDS011;21057;51.024;7.540;2024-03-23T07:26:40;32.60;;;30.57;;
15454;SDS011;21057;51.024;7.540;2024-03-23T07:29:06;33.67;;;31.27;;
15454;SDS011;21057;51.024;7.540;2024-03-23T07:31:34;34.67;;;31.97;;
15454;SDS011;21057;51.024;7.540;2024-03-23T07:34:00;34.60;;;31.67;;
15454;SDS011;21057;51.024;7.540;2024-03-23T07:36:27;37.20;;;33.53;;
15454;SDS011;21057;51.024;7.540;2024-03-23T07:38:53;35.37;;;32.90;;
15454;SDS011;21057;51.024;7.540;2024-03-23T07:41:20;34.10;;;31.63;;
15454;SDS011;21057;51.024;7.540;2024-03-23T07:43:46;35.50;;;32.80;;
15454;SDS011;21057;51.024;7.540;2024-03-23T07:46:14;34.17;;;31.77;;
15454;SDS011;21057;51.024;7.540;2024-03-23T07:48:42;35.70;;;33.10;;
15454;SDS011;21057;51.024;7.540;2024-03-23T07:51:10;34.43;;;31.77;;
15454;SDS011;21057;51.024;7.540;2024-03-23T07:53:36;36.90;;;33.70;;
15454;SDS011;21057;51.024;7.540;2024-03-23T07:56:05;34.90;;;32.03;;
15454;SDS011;21057;51.024;7.540;2024-03-23T07:58:32;33.90;;;31.57;;
15454;SDS011;21057;51.024;7.540;2024-03-23T08:01:03;33.57;;;31.20;;
15454;SDS011;21057;51.024;7.540;2024-03-23T08:03:29;33.63;;;31.10;;
15454;SDS011;21057;51.024;7.540;2024-03-23T08:05:58;35.83;;;32.30;;
15454;SDS011;21057;51.024;7.540;2024-03-23T08:08:31;33.80;;;31.37;;
15454;SDS011;21057;51.024;7.540;2024-03-23T08:10:58;34.07;;;31.00;;
15454;SDS011;21057;51.024;7.540;2024-03-23T08:13:23;34.53;;;32.07;;
15454;SDS011;21057;51.024;7.540;2024-03-23T08:15:50;33.57;;;31.00;;
15454;SDS011;21057;51.024;7.540;2024-03-23T08:18:16;33.90;;;31.40;;
15454;SDS011;21057;51.024;7.540;2024-03-23T08:20:43;32.53;;;29.67;;
15454;SDS011;21057;51.024;7.540;2024-03-23T08:23:10;32.70;;;29.87;;
15454;SDS011;21057;51.024;7.540;2024-03-23T08:25:37;32.47;;;29.63;;
15454;SDS011;21057;51.024;7.540;2024-03-23T08:28:03;32.73;;;30.60;;
15454;SDS011;21057;51.024;7.540;2024-03-23T08:30:30;30.47;;;28.37;;
15454;SDS011;21057;51.024;7.540;2024-03-23T08:32:56;30.83;;;28.40;;
15454;SDS011;21057;51.024;7.540;2024-03-23T08:35:24;31.37;;;28.77;;
15454;SDS011;21057;51.024;7.540;2024-03-23T08:37:50;31.50;;;29.00;;
15454;SDS011;21057;51.024;7.540;2024-03-23T08:40:18;30.87;;;28.57;;
15454;SDS011;21057;51.024;7.540;2024-03-23T08:42:44;29.37;;;27.03;;
15454;SDS011;21057;51.024;7.540;2024-03-23T08:45:10;31.17;;;28.90;;
15454;SDS011;21057;51.024;7.540;2024-03-23T08:47:36;28.50;;;26.10;;
15454;SDS011;21057;51.024;7.540;2024-03-23T08:50:03;30.07;;;27.63;;
15454;SDS011;21057;51.024;7.540;2024-03-23T08:52:30;29.83;;;27.03;;
15454;SDS011;21057;51.024;7.540;2024-03-23T08:54:58;30.60;;;27.77;;
15454;SDS011;21057;51.024;7.540;2024-03-23T08:57:25;29.67;;;27.20;;
15454;SDS011;21057;51.024;7.540;2024-03-23T08:59:52;30.50;;;27.97;;
15454;SDS011;21057;51.024;7.540;2024-03-23T09:02:18;29.57;;;26.47;;
15454;SDS011;21057;51.024;7.540;2024-03-23T09:04:45;26.60;;;24.47;;
15454;SDS011;21057;51.024;7.540;2024-03-23T09:07:10;29.67;;;26.73;;
15454;SDS011;21057;51.024;7.540;2024-03-23T09:09:38;27.13;;;24.93;;
15454;SDS011;21057;51.024;7.540;2024-03-23T09:12:04;25.93;;;24.03;;
15454;SDS011;21057;51.024;7.540;2024-03-23T09:14:33;26.87;;;24.63;;
15454;SDS011;21057;51.024;7.540;2024-03-23T09:16:59;28.37;;;25.53;;
15454;SDS011;21057;51.024;7.540;2024-03-23T09:19:26;27.77;;;24.87;;
15454;SDS011;21057;51.024;7.540;2024-03-23T09:21:53;27.90;;;25.17;;
15454;SDS011;21057;51.024;7.540;2024-03-23T09:24:20;24.90;;;23.07;;
15454;SDS011;21057;51.024;7.540;2024-03-23T09:26:46;25.53;;;23.07;;
15454;SDS011;21057;51.024;7.540;2024-03-23T09:29:13;24.97;;;23.17;;
15454;SDS011;21057;51.024;7.540;2024-03-23T09:31:40;25.13;;;22.83;;
15454;SDS011;21057;51.024;7.540;2024-03-23T09:34:07;25.33;;;23.23;;
15454;SDS011;21057;51.024;7.540;2024-03-23T09:36:32;23.17;;;21.47;;
15454;SDS011;21057;51.024;7.540;2024-03-23T09:38:59;25.63;;;21.67;;
15454;SDS011;21057;51.024;7.540;2024-03-23T09:41:25;23.50;;;21.77;;
15454;SDS011;21057;51.024;7.540;2024-03-23T09:43:52;22.60;;;20.90;;
15454;SDS011;21057;51.024;7.540;2024-03-23T09:46:18;24.17;;;22.00;;
15454;SDS011;21057;51.024;7.540;2024-03-23T09:48:47;23.93;;;22.43;;
15454;SDS011;21057;51.024;7.540;2024-03-23T09:51:13;23.53;;;21.83;;
15454;SDS011;21057;51.024;7.540;2024-03-23T09:53:40;23.00;;;21.30;;
15454;SDS011;21057;51.024;7.540;2024-03-23T09:56:07;23.40;;;21.70;;
15454;SDS011;21057;51.024;7.540;2024-03-23T09:58:34;24.60;;;22.23;;
15454;SDS011;21057;51.024;7.540;2024-03-23T10:01:00;24.47;;;22.57;;
15454;SDS011;21057;51.024;7.540;2024-03-23T10:03:28;23.27;;;21.67;;
15454;SDS011;21057;51.024;7.540;2024-03-23T10:06:01;24.50;;;22.53;;
15454;SDS011;21057;51.024;7.540;2024-03-23T10:08:30;23.50;;;21.90;;
15454;SDS011;21057;51.024;7.540;2024-03-23T10:10:56;23.17;;;21.50;;
15454;SDS011;21057;51.024;7.540;2024-03-23T10:13:26;22.33;;;20.67;;
15454;SDS011;21057;51.024;7.540;2024-03-23T10:15:54;22.47;;;20.97;;
15454;SDS011;21057;51.024;7.540;2024-03-23T10:18:23;23.10;;;21.20;;
15454;SDS011;21057;51.024;7.540;2024-03-23T10:20:50;22.30;;;20.70;;
15454;SDS011;21057;51.024;7.540;2024-03-23T10:23:20;22.27;;;20.57;;
15454;SDS011;21057;51.024;7.540;2024-03-23T10:25:48;22.73;;;21.07;;
15454;SDS011;21057;51.024;7.540;2024-03-23T10:28:15;23.67;;;22.07;;
15454;SDS011;21057;51.024;7.540;2024-03-23T10:30:41;23.13;;;21.20;;
15454;SDS011;21057;51.024;7.540;2024-03-23T10:33:08;22.60;;;21.03;;
15454;SDS011;21057;51.024;7.540;2024-03-23T10:35:34;23.80;;;22.20;;
15454;SDS011;21057;51.024;7.540;2024-03-23T10:38:02;23.47;;;21.77;;
15454;SDS011;21057;51.024;7.540;2024-03-23T10:40:31;22.37;;;20.87;;
15454;SDS011;21057;51.024;7.540;2024-03-23T10:43:00;22.60;;;21.17;;
15454;SDS011;21057;51.024;7.540;2024-03-23T10:45:27;23.00;;;21.20;;
15454;SDS011;21057;51.024;7.540;2024-03-23T10:47:54;21.43;;;19.93;;
15454;SDS011;21057;51.024;7.540;2024-03-23T10:50:21;20.83;;;19.33;;
15454;SDS011;21057;51.024;7.540;2024-03-23T10:52:48;22.20;;;20.40;;
15454;SDS011;21057;51.024;7.540;2024-03-23T10:55:15;21.17;;;19.43;;
15454;SDS011;21057;51.024;7.540;2024-03-23T10:57:49;21.70;;;20.20;;
15454;SDS011;21057;51.024;7.540;2024-03-23T11:00:17;21.03;;;19.53;;
15454;SDS011;21057;51.024;7.540;2024-03-23T11:02:47;21.03;;;19.43;;
15454;SDS011;21057;51.024;7.540;2024-03-23T11:05:29;21.07;;;19.27;;
15454;SDS011;21057;51.024;7.540;2024-03-23T11:07:56;21.00;;;19.47;;
15454;SDS011;21057;51.024;7.540;2024-03-23T11:10:25;20.70;;;19.40;;
15454;SDS011;21057;51.024;7.540;2024-03-23T11:12:55;20.73;;;19.40;;
15454;SDS011;21057;51.024;7.540;2024-03-23T11:15:21;20.90;;;19.50;;
15454;SDS011;21057;51.024;7.540;2024-03-23T11:18:02;20.57;;;18.97;;
15454;SDS011;21057;51.024;7.540;2024-03-23T11:20:31;20.40;;;19.10;;
15454;SDS011;21057;51.024;7.540;2024-03-23T11:22:59;20.90;;;19.50;;
15454;SDS011;21057;51.024;7.540;2024-03-23T11:25:25;21.20;;;19.90;;
15454;SDS011;21057;51.024;7.540;2024-03-23T11:27:53;21.70;;;20.30;;
15454;SDS011;21057;51.024;7.540;2024-03-23T11:30:22;21.67;;;20.10;;
15454;SDS011;21057;51.024;7.540;2024-03-23T11:32:50;21.73;;;20.33;;
15454;SDS011;21057;51.024;7.540;2024-03-23T11:35:29;21.93;;;20.53;;
15454;SDS011;21057;51.024;7.540;2024-03-23T11:38:01;22.50;;;20.67;;
15454;SDS011;21057;51.024;7.540;2024-03-23T11:40:31;22.00;;;20.60;;
15454;SDS011;21057;51.024;7.540;2024-03-23T11:43:00;23.47;;;21.43;;
15454;SDS011;21057;51.024;7.540;2024-03-23T11:45:27;22.57;;;21.17;;
15454;SDS011;21057;51.024;7.540;2024-03-23T11:50:40;21.70;;;19.63;;
15454;SDS011;21057;51.024;7.540;2024-03-23T11:53:17;21.83;;;20.50;;
15454;SDS011;21057;51.024;7.540;2024-03-23T11:55:45;26.07;;;24.57;;
15454;SDS011;21057;51.024;7.540;2024-03-23T11:58:15;28.73;;;26.50;;
15454;SDS011;21057;51.024;7.540;2024-03-23T12:00:43;28.20;;;26.60;;
15454;SDS011;21057;51.024;7.540;2024-03-23T12:03:16;28.37;;;26.77;;
15454;SDS011;21057;51.024;7.540;2024-03-23T12:05:46;26.70;;;25.10;;
15454;SDS011;21057;51.024;7.540;2024-03-23T12:08:17;26.70;;;24.90;;
15454;SDS011;21057;51.024;7.540;2024-03-23T12:10:44;26.60;;;24.90;;
15454;SDS011;21057;51.024;7.540;2024-03-23T12:13:16;26.03;;;24.53;;
15454;SDS011;21057;51.024;7.540;2024-03-23T12:15:42;23.40;;;21.90;;
15454;SDS011;21057;51.024;7.540;2024-03-23T12:18:10;23.07;;;21.57;;
15454;SDS011;21057;51.024;7.540;2024-03-23T12:20:37;26.03;;;24.07;;
15454;SDS011;21057;51.024;7.540;2024-03-23T12:23:04;25.10;;;23.60;;
15454;SDS011;21057;51.024;7.540;2024-03-23T12:25:31;24.33;;;22.83;;
15454;SDS011;21057;51.024;7.540;2024-03-23T12:27:58;23.97;;;22.57;;
15454;SDS011;21057;51.024;7.540;2024-03-23T12:30:26;24.13;;;22.63;;
15454;SDS011;21057;51.024;7.540;2024-03-23T12:32:53;24.40;;;23.00;;
15454;SDS011;21057;51.024;7.540;2024-03-23T12:35:19;25.10;;;23.70;;
15454;SDS011;21057;51.024;7.540;2024-03-23T12:37:46;24.33;;;22.93;;
15454;SDS011;21057;51.024;7.540;2024-03-23T12:40:12;24.87;;;23.27;;
15454;SDS011;21057;51.024;7.540;2024-03-23T12:42:39;25.50;;;24.00;;
15454;SDS011;21057;51.024;7.540;2024-03-23T12:45:05;24.80;;;23.30;;
15454;SDS011;21057;51.024;7.540;2024-03-23T12:47:34;23.67;;;21.97;;
15454;SDS011;21057;51.024;7.540;2024-03-23T12:49:59;23.70;;;22.20;;
15454;SDS011;21057;51.024;7.540;2024-03-23T12:52:26;23.67;;;22.07;;
15454;SDS011;21057;51.024;7.540;2024-03-23T12:54:54;22.70;;;21.30;;
15454;SDS011;21057;51.024;7.540;2024-03-23T12:57:22;21.60;;;20.30;;
15454;SDS011;21057;51.024;7.540;2024-03-23T12:59:49;22.67;;;21.27;;
15454;SDS011;21057;51.024;7.540;2024-03-23T13:02:17;22.47;;;21.07;;
15454;SDS011;21057;51.024;7.540;2024-03-23T13:04:46;23.80;;;22.40;;
15454;SDS011;21057;51.024;7.540;2024-03-23T13:07:15;22.80;;;21.40;;
15454;SDS011;21057;51.024;7.540;2024-03-23T13:09:41;23.03;;;21.27;;
15454;SDS011;21057;51.024;7.540;2024-03-23T13:12:08;22.00;;;20.60;;
15454;SDS011;21057;51.024;7.540;2024-03-23T13:14:34;22.33;;;20.83;;
15454;SDS011;21057;51.024;7.540;2024-03-23T13:17:01;22.10;;;20.70;;
15454;SDS011;21057;51.024;7.540;2024-03-23T13:19:27;20.73;;;19.43;;
15454;SDS011;21057;51.024;7.540;2024-03-23T13:21:57;21.43;;;19.80;;
15454;SDS011;21057;51.024;7.540;2024-03-23T13:24:23;20.47;;;19.17;;
15454;SDS011;21057;51.024;7.540;2024-03-23T13:26:51;21.40;;;20.10;;
15454;SDS011;21057;51.024;7.540;2024-03-23T13:29:17;21.40;;;20.10;;
15454;SDS011;21057;51.024;7.540;2024-03-23T13:31:44;22.13;;;20.73;;
15454;SDS011;21057;51.024;7.540;2024-03-23T13:34:10;23.80;;;22.30;;
15454;SDS011;21057;51.024;7.540;2024-03-23T13:36:38;23.27;;;21.73;;
15454;SDS011;21057;51.024;7.540;2024-03-23T13:39:05;21.83;;;20.43;;
15454;SDS011;21057;51.024;7.540;2024-03-23T13:41:36;20.83;;;19.53;;
15454;SDS011;21057;51.024;7.540;2024-03-23T13:44:03;20.30;;;19.10;;
15454;SDS011;21057;51.024;7.540;2024-03-23T13:46:30;21.37;;;20.07;;
15454;SDS011;21057;51.024;7.540;2024-03-23T13:48:55;21.30;;;20.00;;
15454;SDS011;21057;51.024;7.540;2024-03-23T13:51:23;21.37;;;19.80;;
15454;SDS011;21057;51.024;7.540;2024-03-23T13:53:50;21.20;;;19.80;;
15454;SDS011;21057;51.024;7.540;2024-03-23T13:56:18;20.43;;;19.13;;
15454;SDS011;21057;51.024;7.540;2024-03-23T13:58:44;20.37;;;19.07;;
15454;SDS011;21057;51.024;7.540;2024-03-23T14:01:12;19.57;;;18.37;;
15454;SDS011;21057;51.024;7.540;2024-03-23T14:03:38;19.97;;;18.70;;
15454;SDS011;21057;51.024;7.540;2024-03-23T14:06:05;20.50;;;19.20;;
15454;SDS011;21057;51.024;7.540;2024-03-23T14:08:32;20.00;;;18.60;;
15454;SDS011;21057;51.024;7.540;2024-03-23T14:11:01;19.87;;;18.57;;
15454;SDS011;21057;51.024;7.540;2024-03-23T14:13:29;21.23;;;19.73;;
15454;SDS011;21057;51.024;7.540;2024-03-23T14:15:56;21.67;;;19.90;;
15454;SDS011;21057;51.024;7.540;2024-03-23T14:18:22;22.20;;;20.70;;
15454;SDS011;21057;51.024;7.540;2024-03-23T14:20:51;21.47;;;20.07;;
15454;SDS011;21057;51.024;7.540;2024-03-23T14:23:18;21.97;;;20.37;;
15454;SDS011;21057;51.024;7.540;2024-03-23T14:25:45;24.40;;;21.13;;
15454;SDS011;21057;51.024;7.540;2024-03-23T14:28:10;20.83;;;19.33;;
15454;SDS011;21057;51.024;7.540;2024-03-23T14:30:41;20.93;;;19.20;;
15454;SDS011;21057;51.024;7.540;2024-03-23T14:33:07;20.07;;;18.70;;
15454;SDS011;21057;51.024;7.540;2024-03-23T14:35:34;20.13;;;18.83;;
15454;SDS011;21057;51.024;7.540;2024-03-23T14:38:01;20.80;;;19.50;;
15454;SDS011;21057;51.024;7.540;2024-03-23T14:40:28;22.10;;;20.43;;
15454;SDS011;21057;51.024;7.540;2024-03-23T14:42:54;21.07;;;19.57;;
15454;SDS011;21057;51.024;7.540;2024-03-23T14:45:21;22.07;;;20.63;;
15454;SDS011;21057;51.024;7.540;2024-03-23T14:47:50;20.97;;;19.57;;
15454;SDS011;21057;51.024;7.540;2024-03-23T14:50:17;21.40;;;19.90;;
15454;SDS011;21057;51.024;7.540;2024-03-23T14:52:44;20.90;;;19.60;;
15454;SDS011;21057;51.024;7.540;2024-03-23T14:55:11;21.80;;;20.40;;
15454;SDS011;21057;51.024;7.540;2024-03-23T14:57:37;21.80;;;20.40;;
15454;SDS011;21057;51.024;7.540;2024-03-23T15:00:06;21.83;;;20.43;;
15454;SDS011;21057;51.024;7.540;2024-03-23T15:02:33;22.23;;;20.40;;
15454;SDS011;21057;51.024;7.540;2024-03-23T15:05:01;22.30;;;20.73;;
15454;SDS011;21057;51.024;7.540;2024-03-23T15:07:29;21.93;;;20.33;;
15454;SDS011;21057;51.024;7.540;2024-03-23T15:09:56;22.43;;;21.03;;
15454;SDS011;21057;51.024;7.540;2024-03-23T15:12:22;21.73;;;20.33;;
15454;SDS011;21057;51.024;7.540;2024-03-23T15:14:48;22.70;;;20.90;;